createdAt,value
2023-01-26T06:26:06.288Z,954.50
2023-01-26T06:28:32.634Z,954.47
2023-01-26T06:30:59.066Z,954.54
2023-01-26T06:33:25.360Z,954.38
2023-01-26T06:35:51.738Z,954.45
2023-01-26T06:38:18.050Z,954.40
2023-01-26T06:40:44.683Z,954.34
2023-01-26T06:43:10.997Z,954.40
2023-01-26T06:45:37.339Z,954.38
2023-01-26T06:48:03.695Z,954.40
2023-01-26T06:50:30.105Z,954.44
2023-01-26T06:52:56.413Z,954.36
2023-01-26T06:55:22.827Z,954.34
2023-01-26T06:57:49.187Z,954.32
2023-01-26T07:00:15.534Z,954.30
2023-01-26T07:02:41.948Z,954.28
2023-01-26T07:05:08.225Z,954.25
2023-01-26T07:07:34.952Z,954.28
2023-01-26T07:10:01.323Z,954.25
2023-01-26T07:12:27.699Z,954.12
2023-01-26T07:14:54.040Z,954.09
2023-01-26T07:17:20.368Z,954.07
2023-01-26T07:19:46.709Z,954.12
2023-01-26T07:22:13.034Z,954.04
2023-01-26T07:24:39.447Z,954.07
2023-01-26T07:27:06.018Z,954.15
2023-01-26T07:29:32.368Z,954.09
2023-01-26T07:31:58.822Z,953.99
2023-01-26T07:34:25.073Z,954.27
2023-01-26T07:36:51.389Z,954.13
2023-01-26T07:39:17.968Z,954.09
2023-01-26T07:41:44.291Z,954.15
2023-01-26T07:44:10.680Z,953.98
2023-01-26T07:46:37.097Z,954.00
2023-01-26T07:49:03.363Z,953.92
2023-01-26T07:51:29.689Z,953.94
2023-01-26T14:45:59.921Z,949.26
2023-01-26T14:48:26.270Z,949.27
2023-01-26T14:50:52.667Z,949.24
2023-01-26T14:53:19.083Z,949.20
2023-01-26T14:55:45.462Z,949.25
2023-01-26T14:58:11.909Z,949.29
2023-01-26T15:00:38.503Z,949.25
2023-01-26T15:03:04.819Z,949.27
2023-01-26T15:05:31.177Z,949.31
2023-01-26T15:07:57.502Z,949.21
2023-01-26T15:10:23.879Z,949.17
2023-01-26T15:12:50.205Z,949.17
2023-01-26T15:15:16.891Z,949.15
2023-01-26T15:17:43.386Z,949.09
2023-01-26T15:20:09.984Z,949.11
2023-01-26T15:22:36.043Z,949.07
2023-01-26T15:25:02.401Z,949.02
2023-01-26T15:27:28.975Z,948.92
2023-01-26T15:29:55.381Z,948.81
2023-01-26T15:32:21.740Z,948.82
2023-01-26T15:34:48.136Z,948.81
